createdAt,value
2019-05-25T00:00:11.995Z,13.15
2019-05-25T00:01:11.979Z,13.09
2019-05-25T00:02:11.979Z,13.02
2019-05-25T00:03:11.955Z,12.97
2019-05-25T00:04:11.978Z,12.96
2019-05-25T00:05:11.939Z,12.88
2019-05-25T00:06:11.926Z,12.97
2019-05-25T00:07:11.979Z,12.87
2019-05-25T00:08:11.902Z,12.87
2019-05-25T00:09:11.899Z,12.82
2019-05-25T00:10:11.906Z,12.85
2019-05-25T00:11:11.874Z,12.88
2019-05-25T00:12:11.873Z,12.87
2019-05-25T00:13:11.851Z,12.87
2019-05-25T00:14:11.837Z,12.82
2019-05-25T00:15:11.851Z,12.88
2019-05-25T00:16:11.819Z,12.78
2019-05-25T00:17:11.834Z,12.74
2019-05-25T00:18:11.809Z,12.74
2019-05-25T00:19:11.793Z,12.71
2019-05-25T00:20:11.779Z,12.71
2019-05-25T00:21:14.009Z,12.71
2019-05-25T00:22:11.754Z,12.77
2019-05-25T00:23:11.742Z,12.70
2019-05-25T00:24:12.903Z,12.71
2019-05-25T00:25:11.724Z,12.64
2019-05-25T00:26:11.744Z,12.60
2019-05-25T00:27:11.702Z,12.62
2019-05-25T00:28:11.694Z,12.60
2019-05-25T00:29:11.679Z,12.63
2019-05-25T00:30:11.681Z,12.62
2019-05-25T00:31:11.691Z,12.64
2019-05-25T00:32:11.650Z,12.63
2019-05-25T00:33:11.634Z,12.57
2019-05-25T00:34:11.799Z,12.49
2019-05-25T00:35:11.651Z,12.62
2019-05-25T00:36:11.623Z,12.62
2019-05-25T00:37:11.621Z,12.54
2019-05-25T00:38:11.583Z,12.49
2019-05-25T00:39:11.587Z,12.51
2019-05-25T00:40:11.563Z,12.41
2019-05-25T00:41:11.560Z,12.41
2019-05-25T00:42:11.542Z,12.44
2019-05-25T00:43:11.548Z,12.31
2019-05-25T00:44:11.533Z,12.37
2019-05-25T00:45:11.509Z,12.41
2019-05-25T00:46:11.531Z,12.34
2019-05-25T00:47:11.487Z,12.37
2019-05-25T00:48:11.523Z,12.38
2019-05-25T00:49:11.466Z,12.39
2019-05-25T00:50:11.458Z,12.30
2019-05-25T00:51:11.450Z,12.29
2019-05-25T00:52:11.500Z,12.37
2019-05-25T00:53:11.453Z,12.20
2019-05-25T00:54:25.404Z,12.16
2019-05-25T00:55:12.406Z,12.16
2019-05-25T00:56:11.392Z,12.05
2019-05-25T00:57:11.398Z,12.05
2019-05-25T00:58:11.372Z,12.08
2019-05-25T00:59:11.394Z,12.06
2019-05-25T01:00:11.351Z,12.11
2019-05-25T01:01:11.356Z,12.09
2019-05-25T01:02:11.359Z,12.15
2019-05-25T01:03:11.317Z,12.08
2019-05-25T01:04:11.310Z,12.06
2019-05-25T01:05:11.351Z,12.04
2019-05-25T01:06:11.288Z,12.06
2019-05-25T01:07:11.291Z,12.06
2019-05-25T01:08:11.269Z,12.04
2019-05-25T01:09:11.254Z,12.04
2019-05-25T01:10:11.268Z,12.11
2019-05-25T01:11:18.784Z,11.93
2019-05-25T01:12:11.228Z,12.04
2019-05-25T01:13:11.244Z,12.05
2019-05-25T01:14:11.224Z,11.94
2019-05-25T01:15:11.214Z,12.06
2019-05-25T01:16:11.218Z,11.90
2019-05-25T01:17:11.171Z,11.93
2019-05-25T01:18:11.160Z,11.96
2019-05-25T01:19:11.161Z,11.94
2019-05-25T01:20:11.509Z,12.02
2019-05-25T01:21:11.131Z,11.99
2019-05-25T01:22:11.118Z,12.08
2019-05-25T01:23:11.130Z,12.06
2019-05-25T01:24:11.103Z,12.08
2019-05-25T01:25:11.086Z,12.11
2019-05-25T01:26:11.130Z,12.11
2019-05-25T01:27:11.069Z,12.11
2019-05-25T01:28:11.091Z,12.08
2019-05-25T01:29:11.042Z,12.08
2019-05-25T01:30:11.067Z,11.93
2019-05-25T01:31:11.026Z,11.90
2019-05-25T01:32:11.026Z,11.94
2019-05-25T01:33:11.003Z,11.96
2019-05-25T01:34:11.019Z,11.93
2019-05-25T01:35:11.008Z,11.96
2019-05-25T01:36:11.002Z,11.93
2019-05-25T01:37:10.962Z,11.96
2019-05-25T01:38:10.958Z,11.93
2019-05-25T01:39:10.941Z,11.94
2019-05-25T01:40:10.929Z,11.93
2019-05-25T01:41:10.962Z,11.94
2019-05-25T01:42:10.913Z,12.01
2019-05-25T01:43:10.922Z,11.93
2019-05-25T01:44:10.885Z,11.93
2019-05-25T01:45:10.897Z,11.86
2019-05-25T01:46:10.887Z,11.86
2019-05-25T01:47:10.862Z,11.83
2019-05-25T01:48:10.848Z,11.83
2019-05-25T01:49:10.832Z,11.77
2019-05-25T01:50:10.824Z,11.85
2019-05-25T01:51:10.845Z,11.77
2019-05-25T01:52:10.813Z,11.77
2019-05-25T01:53:11.729Z,11.74
2019-05-25T01:54:10.780Z,11.67
2019-05-25T01:55:10.825Z,11.67
2019-05-25T01:56:10.758Z,11.57
2019-05-25T01:57:10.800Z,11.67
2019-05-25T01:58:10.748Z,11.56
2019-05-25T01:59:10.730Z,11.54
2019-05-25T02:00:10.846Z,11.52
2019-05-25T02:01:10.721Z,11.49
2019-05-25T02:02:10.719Z,11.54
2019-05-25T02:03:10.684Z,11.44
2019-05-25T02:04:10.679Z,11.41
2019-05-25T02:05:10.707Z,11.46
2019-05-25T02:06:10.669Z,11.38
2019-05-25T02:07:10.668Z,11.39
2019-05-25T02:08:10.646Z,11.36
2019-05-25T02:09:10.632Z,11.35
2019-05-25T02:10:10.614Z,11.36
2019-05-25T02:11:10.612Z,11.38
2019-05-25T02:12:10.662Z,11.32
2019-05-25T02:13:10.590Z,11.24
2019-05-25T02:14:10.573Z,11.27
2019-05-25T02:15:10.569Z,11.19
2019-05-25T02:16:10.551Z,11.28
2019-05-25T02:17:10.561Z,11.25
2019-05-25T02:18:10.561Z,11.24
2019-05-25T02:19:10.520Z,11.21
2019-05-25T02:20:10.518Z,11.10
2019-05-25T02:21:10.502Z,11.16
2019-05-25T02:22:10.516Z,11.16
2019-05-25T02:23:10.473Z,11.19
2019-05-25T02:24:10.464Z,11.03
2019-05-25T02:25:17.851Z,11.09
2019-05-25T02:26:11.447Z,11.11
2019-05-25T02:27:10.436Z,10.95
2019-05-25T02:28:10.451Z,10.96
2019-05-25T02:29:10.437Z,10.96
2019-05-25T02:30:10.473Z,11.06
2019-05-25T02:31:10.391Z,10.91
2019-05-25T02:32:10.387Z,10.95
2019-05-25T02:33:10.393Z,10.96
2019-05-25T02:34:10.364Z,10.89
2019-05-25T02:35:10.390Z,10.94
2019-05-25T02:36:10.340Z,10.91
2019-05-25T02:37:10.329Z,10.94
2019-05-25T02:38:10.340Z,10.81
2019-05-25T02:39:10.310Z,10.81
2019-05-25T02:40:10.300Z,10.94
2019-05-25T02:41:10.457Z,10.81
2019-05-25T02:42:10.279Z,10.83
2019-05-25T02:43:10.282Z,10.78
2019-05-25T02:44:10.261Z,10.83
2019-05-25T02:45:10.244Z,10.84
2019-05-25T02:46:10.250Z,10.83
2019-05-25T02:47:10.226Z,10.86
2019-05-25T02:48:10.232Z,10.89
2019-05-25T02:49:10.200Z,10.84
2019-05-25T02:50:10.195Z,10.89
2019-05-25T02:51:10.178Z,10.81
2019-05-25T02:52:10.191Z,10.83
2019-05-25T02:53:10.186Z,10.77
2019-05-25T02:54:10.152Z,10.77
2019-05-25T02:55:10.150Z,10.77
2019-05-25T02:56:10.130Z,10.71
2019-05-25T02:57:10.127Z,10.73
2019-05-25T02:58:10.109Z,10.81
2019-05-25T02:59:10.152Z,10.76
2019-05-25T03:00:10.089Z,10.73
2019-05-25T03:01:10.073Z,10.73
2019-05-25T03:02:10.070Z,10.74
2019-05-25T03:03:10.061Z,10.74
2019-05-25T03:04:10.067Z,10.78
2019-05-25T03:05:10.049Z,10.73
2019-05-25T03:06:10.057Z,10.66
2019-05-25T03:07:10.009Z,10.70
2019-05-25T03:08:10.027Z,10.65
2019-05-25T03:09:10.018Z,10.63
2019-05-25T03:10:09.983Z,10.55
2019-05-25T03:11:09.996Z,10.65
2019-05-25T03:12:09.972Z,10.58
2019-05-25T03:13:09.948Z,10.56
2019-05-25T03:14:09.962Z,10.55
2019-05-25T03:15:09.954Z,10.52
2019-05-25T03:16:09.921Z,10.55
2019-05-25T03:17:09.914Z,10.51
2019-05-25T03:18:09.898Z,10.62
2019-05-25T03:19:09.936Z,10.58
2019-05-25T03:20:09.875Z,10.58
2019-05-25T03:21:09.862Z,10.44
2019-05-25T03:22:09.857Z,10.44
2019-05-25T03:23:09.874Z,10.53
2019-05-25T03:24:09.833Z,10.34
2019-05-25T03:25:09.861Z,10.40
2019-05-25T03:26:09.812Z,10.40
2019-05-25T03:27:09.837Z,10.40
2019-05-25T03:28:09.789Z,10.43
2019-05-25T03:29:09.786Z,10.32
2019-05-25T03:30:09.843Z,10.33
2019-05-25T03:31:09.763Z,10.33
2019-05-25T03:32:09.751Z,10.24
2019-05-25T03:33:09.755Z,10.32
2019-05-25T03:34:09.734Z,10.26
2019-05-25T03:35:09.742Z,10.21
2019-05-25T03:36:09.704Z,10.19
2019-05-25T03:37:09.725Z,10.18
2019-05-25T03:38:09.708Z,10.25
2019-05-25T03:39:09.688Z,10.17
2019-05-25T03:40:09.679Z,10.22
2019-05-25T03:41:09.677Z,10.21
2019-05-25T03:42:09.646Z,10.25
2019-05-25T03:43:09.635Z,10.21
2019-05-25T03:44:09.650Z,10.32
2019-05-25T03:45:09.620Z,10.25
2019-05-25T03:46:09.615Z,10.32
2019-05-25T03:47:09.611Z,10.18
2019-05-25T03:48:09.575Z,10.22
2019-05-25T03:49:09.564Z,10.21
2019-05-25T03:50:09.556Z,10.21
2019-05-25T03:51:09.566Z,10.21
2019-05-25T03:52:09.536Z,10.25
2019-05-25T03:53:09.539Z,10.25
2019-05-25T03:54:09.523Z,10.19
2019-05-25T03:55:09.504Z,10.12
2019-05-25T03:56:09.562Z,10.07
2019-05-25T03:57:09.479Z,10.12
2019-05-25T03:58:09.492Z,10.06
2019-05-25T03:59:09.480Z,10.06
2019-05-25T04:00:09.457Z,10.03
2019-05-25T04:01:09.443Z,10.01
2019-05-25T04:02:09.456Z,10.04
2019-05-25T04:03:09.450Z,9.94
2019-05-25T04:04:09.413Z,10.03
2019-05-25T04:05:09.412Z,10.00
2019-05-25T04:06:09.414Z,10.00
2019-05-25T04:07:09.400Z,9.97
2019-05-25T04:08:09.370Z,9.97
2019-05-25T04:09:09.370Z,10.00
2019-05-25T04:10:09.343Z,9.96
2019-05-25T04:11:09.342Z,9.96
2019-05-25T04:12:09.370Z,9.96
2019-05-25T04:13:09.313Z,9.97
2019-05-25T04:14:09.319Z,9.94
2019-05-25T04:15:09.312Z,9.97
2019-05-25T04:16:09.283Z,9.97
2019-05-25T04:17:09.310Z,9.99
2019-05-25T04:18:09.252Z,9.97
2019-05-25T04:19:09.253Z,9.96
2019-05-25T04:20:09.234Z,9.89
2019-05-25T04:21:09.291Z,9.91
2019-05-25T04:22:09.218Z,9.93
2019-05-25T04:23:09.223Z,9.88
2019-05-25T04:24:09.192Z,9.81
2019-05-25T04:25:09.181Z,9.89
2019-05-25T04:26:21.993Z,9.83
2019-05-25T04:27:10.156Z,9.93
2019-05-25T04:28:09.197Z,9.85
2019-05-25T04:29:09.146Z,9.76
2019-05-25T04:30:09.126Z,9.83
2019-05-25T04:31:09.115Z,9.83
2019-05-25T04:32:09.105Z,9.79
2019-05-25T04:33:09.115Z,9.83
2019-05-25T04:34:09.087Z,9.81
2019-05-25T04:35:09.082Z,9.82
2019-05-25T04:36:09.117Z,9.86
2019-05-25T04:37:09.080Z,9.93
2019-05-25T04:38:09.063Z,9.89
2019-05-25T04:39:09.038Z,9.88
2019-05-25T04:40:09.023Z,9.83
2019-05-25T04:41:09.013Z,9.82
2019-05-25T04:42:09.002Z,9.86
2019-05-25T04:43:09.029Z,9.82
2019-05-25T04:44:08.981Z,9.93
2019-05-25T04:45:08.975Z,9.89
2019-05-25T04:46:08.961Z,9.94
2019-05-25T04:47:08.969Z,9.94
2019-05-25T04:48:08.942Z,9.91
2019-05-25T04:49:08.945Z,9.82
2019-05-25T04:50:08.918Z,9.83
2019-05-25T04:51:08.917Z,9.93
2019-05-25T04:52:08.894Z,9.86
2019-05-25T04:53:08.883Z,9.97
2019-05-25T04:54:08.892Z,9.91
2019-05-25T04:55:08.886Z,9.93
2019-05-25T04:56:08.851Z,9.97
2019-05-25T04:57:08.980Z,9.85
2019-05-25T04:58:08.833Z,9.94
2019-05-25T04:59:08.839Z,9.96
2019-05-25T05:00:08.812Z,9.99
2019-05-25T05:01:08.822Z,10.00
2019-05-25T05:02:08.786Z,10.07
2019-05-25T05:03:08.777Z,10.06
2019-05-25T05:04:08.855Z,10.09
2019-05-25T05:05:08.758Z,10.21
2019-05-25T05:06:08.747Z,10.12
2019-05-25T05:07:08.734Z,10.17
2019-05-25T05:08:08.726Z,10.25
2019-05-25T05:09:08.711Z,10.18
2019-05-25T05:10:08.740Z,10.28
2019-05-25T05:11:08.695Z,10.32
2019-05-25T05:12:08.683Z,10.25
2019-05-25T05:13:08.672Z,10.39
2019-05-25T05:14:08.659Z,10.40
2019-05-25T05:15:08.670Z,10.34
2019-05-25T05:16:08.641Z,10.43
2019-05-25T05:17:08.631Z,10.56
2019-05-25T05:18:08.617Z,10.55
2019-05-25T05:19:08.625Z,10.59
2019-05-25T05:20:08.618Z,10.60
2019-05-25T05:21:08.590Z,10.62
2019-05-25T05:22:08.577Z,10.68
2019-05-25T05:23:08.567Z,10.56
2019-05-25T05:24:08.554Z,10.65
2019-05-25T05:25:09.636Z,10.77
2019-05-25T05:26:08.530Z,10.80
2019-05-25T05:27:08.525Z,10.88
2019-05-25T05:28:08.524Z,10.92
2019-05-25T05:29:08.506Z,10.91
2019-05-25T05:30:08.521Z,10.95
2019-05-25T05:31:22.614Z,10.96
2019-05-25T05:32:09.467Z,11.01
2019-05-25T05:33:08.461Z,11.16
2019-05-25T05:34:08.447Z,11.07
2019-05-25T05:35:08.455Z,11.17
2019-05-25T05:36:08.455Z,11.19
2019-05-25T05:37:08.437Z,11.27
2019-05-25T05:38:08.408Z,11.24
2019-05-25T05:39:08.393Z,11.28
2019-05-25T05:40:08.381Z,11.31
2019-05-25T05:41:08.392Z,11.35
2019-05-25T05:42:08.366Z,11.41
2019-05-25T05:43:08.349Z,11.38
2019-05-25T05:44:08.347Z,11.44
2019-05-25T05:45:08.329Z,11.56
2019-05-25T05:46:08.348Z,11.49
2019-05-25T05:47:10.449Z,11.53
2019-05-25T05:48:08.297Z,11.68
2019-05-25T05:49:08.293Z,11.67
2019-05-25T05:50:08.278Z,11.67
2019-05-25T05:51:08.292Z,11.71
2019-05-25T05:52:08.258Z,11.59
2019-05-25T05:53:08.304Z,11.74
2019-05-25T05:54:08.232Z,11.68
2019-05-25T05:55:08.233Z,11.71
2019-05-25T05:56:08.236Z,11.75
2019-05-25T05:57:12.391Z,11.83
2019-05-25T05:58:08.194Z,12.01
2019-05-25T05:59:08.187Z,12.08
2019-05-25T06:00:08.175Z,12.04
2019-05-25T06:01:08.187Z,12.05
2019-05-25T06:02:08.155Z,12.16
2019-05-25T06:03:08.139Z,12.29
2019-05-25T06:04:08.141Z,12.21
2019-05-25T06:05:08.137Z,12.23
2019-05-25T06:06:08.110Z,12.39
2019-05-25T06:07:08.118Z,12.46
2019-05-25T06:08:08.087Z,12.46
2019-05-25T06:09:08.082Z,12.60
2019-05-25T06:10:08.067Z,12.67
2019-05-25T06:11:08.054Z,12.74
2019-05-25T06:12:08.086Z,12.79
2019-05-25T06:13:08.032Z,12.81
2019-05-25T06:14:08.024Z,12.82
2019-05-25T06:15:08.022Z,12.78
2019-05-25T06:16:07.999Z,12.78
2019-05-25T06:17:08.020Z,12.87
2019-05-25T06:18:07.982Z,12.84
2019-05-25T06:19:07.989Z,12.81
2019-05-25T06:20:07.958Z,12.96
2019-05-25T06:21:07.951Z,13.00
2019-05-25T06:22:07.958Z,13.00
2019-05-25T06:23:12.198Z,13.07
2019-05-25T06:24:07.919Z,13.14
2019-05-25T06:25:07.919Z,13.17
2019-05-25T06:26:08.269Z,13.22
2019-05-25T06:27:07.909Z,13.22
2019-05-25T06:28:07.888Z,13.24
2019-05-25T06:29:07.866Z,13.33
2019-05-25T06:30:07.890Z,13.30
2019-05-25T06:31:07.842Z,13.32
2019-05-25T06:32:07.835Z,13.25
2019-05-25T06:33:07.857Z,13.24
2019-05-25T06:34:07.813Z,13.37
2019-05-25T06:35:07.823Z,13.33
2019-05-25T06:36:07.790Z,13.33
2019-05-25T06:37:07.782Z,13.41
2019-05-25T06:38:07.792Z,13.33
2019-05-25T06:39:07.776Z,13.40
2019-05-25T06:40:07.755Z,13.49
2019-05-25T06:41:08.794Z,13.46
2019-05-25T06:42:07.727Z,13.47
2019-05-25T06:43:07.736Z,13.49
2019-05-25T06:44:07.719Z,13.59
2019-05-25T06:45:07.699Z,13.54
2019-05-25T06:46:07.688Z,13.55
2019-05-25T06:47:07.675Z,13.62
2019-05-25T06:48:07.720Z,13.62
2019-05-25T06:49:07.669Z,13.69
2019-05-25T06:50:07.640Z,13.69
2019-05-25T06:51:07.631Z,13.73
2019-05-25T06:52:07.622Z,13.70
2019-05-25T06:53:07.611Z,13.70
2019-05-25T06:54:07.628Z,13.74
2019-05-25T06:55:07.590Z,13.79
2019-05-25T06:56:07.579Z,13.74
2019-05-25T06:57:07.573Z,13.73
2019-05-25T06:58:07.567Z,13.74
2019-05-25T06:59:07.567Z,13.79
2019-05-25T07:00:07.551Z,13.83
2019-05-25T07:01:07.524Z,13.84
2019-05-25T07:02:07.516Z,13.83
2019-05-25T07:03:07.504Z,13.84
2019-05-25T07:04:07.515Z,13.83
2019-05-25T07:05:07.486Z,13.89
2019-05-25T07:06:07.471Z,13.94
2019-05-25T07:07:07.474Z,13.94
2019-05-25T07:08:07.452Z,14.04
2019-05-25T07:09:07.458Z,14.06
2019-05-25T07:10:07.433Z,14.04
2019-05-25T07:11:07.424Z,14.19
2019-05-25T07:12:07.434Z,14.14
2019-05-25T07:13:07.400Z,14.27
2019-05-25T07:14:07.444Z,14.34
2019-05-25T07:15:07.377Z,14.31
2019-05-25T07:16:07.367Z,14.38
2019-05-25T07:17:07.366Z,14.47
2019-05-25T07:18:07.344Z,14.37
2019-05-25T07:19:07.333Z,14.37
2019-05-25T07:20:07.347Z,14.37
2019-05-25T07:21:07.336Z,14.37
2019-05-25T07:22:07.302Z,14.38
2019-05-25T07:23:07.295Z,14.39
2019-05-25T07:24:07.280Z,14.53
2019-05-25T07:25:07.309Z,14.53
2019-05-25T07:26:07.289Z,14.61
2019-05-25T07:27:07.250Z,14.64
2019-05-25T07:28:07.250Z,14.68
2019-05-25T07:29:07.233Z,14.68
2019-05-25T07:30:07.432Z,14.78
2019-05-25T07:31:07.295Z,14.88
2019-05-25T07:32:07.233Z,14.98
2019-05-25T07:33:07.189Z,14.94
2019-05-25T07:34:07.180Z,15.02
2019-05-25T07:35:07.238Z,15.02
2019-05-25T07:36:07.963Z,15.03
2019-05-25T07:37:07.148Z,15.06
2019-05-25T07:38:07.197Z,15.02
2019-05-25T07:39:07.125Z,15.03
2019-05-25T07:40:07.125Z,15.03
2019-05-25T07:41:07.131Z,15.09
2019-05-25T07:42:07.089Z,15.06
2019-05-25T07:43:07.087Z,15.06
2019-05-25T07:44:14.635Z,15.06
2019-05-25T07:45:07.078Z,15.05
2019-05-25T07:46:07.070Z,15.02
2019-05-25T07:47:07.047Z,15.05
2019-05-25T07:48:07.030Z,15.17
2019-05-25T07:49:07.016Z,15.17
2019-05-25T07:50:07.029Z,15.21
2019-05-25T07:51:07.013Z,15.28
2019-05-25T07:52:06.982Z,15.42
2019-05-25T07:53:06.975Z,15.42
2019-05-25T07:54:06.969Z,15.46
2019-05-25T07:55:06.956Z,15.57
2019-05-25T07:56:06.962Z,15.52
2019-05-25T07:57:06.928Z,15.52
2019-05-25T07:58:16.640Z,15.57
2019-05-25T07:59:07.921Z,15.57
2019-05-25T08:00:06.902Z,15.64
2019-05-25T08:01:06.918Z,15.63
2019-05-25T08:02:06.878Z,15.59
2019-05-25T08:03:06.880Z,15.61
2019-05-25T08:04:06.856Z,15.64
2019-05-25T08:05:06.847Z,15.64
2019-05-25T08:06:06.859Z,15.66
2019-05-25T08:07:06.825Z,15.72
2019-05-25T08:08:06.821Z,15.76
2019-05-25T08:09:06.809Z,15.74
2019-05-25T08:10:06.823Z,15.64
2019-05-25T08:11:06.785Z,15.49
2019-05-25T08:12:06.796Z,15.54
2019-05-25T08:13:06.769Z,15.63
2019-05-25T08:14:06.748Z,15.64
2019-05-25T08:15:06.742Z,15.66
2019-05-25T08:16:06.729Z,15.66
2019-05-25T08:17:06.740Z,15.75
2019-05-25T08:18:06.704Z,15.76
2019-05-25T08:19:06.698Z,15.85
2019-05-25T08:20:06.691Z,15.75
2019-05-25T08:21:06.672Z,15.79
2019-05-25T08:22:06.695Z,15.85
2019-05-25T08:23:06.654Z,15.89
2019-05-25T08:24:06.643Z,15.94
2019-05-25T08:25:06.631Z,15.82
2019-05-25T08:26:06.621Z,15.88
2019-05-25T08:27:06.647Z,15.94
2019-05-25T08:28:06.603Z,16.00
2019-05-25T08:29:06.593Z,16.04
2019-05-25T08:30:06.579Z,16.07
2019-05-25T08:31:06.579Z,16.11
2019-05-25T08:32:06.550Z,16.11
2019-05-25T08:33:06.564Z,16.09
2019-05-25T08:34:06.533Z,16.12
2019-05-25T08:35:06.538Z,16.23
2019-05-25T08:36:06.510Z,16.14
2019-05-25T08:37:06.511Z,16.23
2019-05-25T08:38:06.514Z,16.22
2019-05-25T08:39:06.480Z,16.37
2019-05-25T08:40:06.476Z,16.44
2019-05-25T08:41:06.474Z,16.58
2019-05-25T08:42:06.457Z,16.68
2019-05-25T08:43:06.482Z,16.71
2019-05-25T08:44:06.429Z,16.70
2019-05-25T08:45:06.438Z,16.80
2019-05-25T08:46:06.405Z,16.80
2019-05-25T08:47:06.395Z,16.73
2019-05-25T08:48:06.398Z,16.73
2019-05-25T08:49:06.393Z,16.81
2019-05-25T08:50:06.367Z,16.78
2019-05-25T08:51:06.398Z,16.81
2019-05-25T08:52:06.346Z,16.78
2019-05-25T08:53:06.329Z,16.68
2019-05-25T08:54:06.345Z,16.68
2019-05-25T08:55:06.313Z,16.77
2019-05-25T08:56:06.301Z,16.65
2019-05-25T08:57:06.287Z,16.65
2019-05-25T08:58:06.295Z,16.62
2019-05-25T08:59:06.280Z,16.53
2019-05-25T09:00:06.283Z,16.67
2019-05-25T09:01:06.245Z,16.67
2019-05-25T09:02:06.259Z,16.89
2019-05-25T09:03:06.248Z,16.96
2019-05-25T09:04:06.221Z,17.11
2019-05-25T09:05:06.202Z,17.17
2019-05-25T09:06:06.201Z,17.08
2019-05-25T09:07:06.189Z,17.18
2019-05-25T09:08:06.195Z,17.17
2019-05-25T09:09:06.160Z,17.20
2019-05-25T09:10:06.148Z,17.25
2019-05-25T09:11:06.180Z,17.35
2019-05-25T09:12:06.126Z,17.41
2019-05-25T09:13:06.116Z,17.48
2019-05-25T09:14:06.130Z,17.51
2019-05-25T09:15:06.232Z,17.63
2019-05-25T09:16:06.098Z,17.59
2019-05-25T09:17:06.075Z,17.76
2019-05-25T09:18:06.297Z,17.71
2019-05-25T09:19:06.076Z,17.88
2019-05-25T09:20:06.055Z,17.97
2019-05-25T09:21:06.031Z,17.94
2019-05-25T09:22:06.029Z,18.06
2019-05-25T09:23:06.011Z,18.10
2019-05-25T09:24:06.032Z,18.02
2019-05-25T09:25:05.987Z,17.97
2019-05-25T09:26:05.983Z,18.12
2019-05-25T09:27:05.967Z,18.28
2019-05-25T09:28:05.959Z,18.27
2019-05-25T09:29:07.658Z,18.37
2019-05-25T09:30:05.940Z,18.42
2019-05-25T09:31:05.962Z,18.42
2019-05-25T09:32:07.137Z,18.44
2019-05-25T09:33:05.910Z,18.40
2019-05-25T09:34:05.941Z,18.52
2019-05-25T09:35:05.907Z,18.52
2019-05-25T09:36:05.875Z,18.43
2019-05-25T09:37:05.920Z,18.44
2019-05-25T09:38:05.853Z,18.50
2019-05-25T09:39:05.869Z,18.39
2019-05-25T09:40:05.851Z,18.29
2019-05-25T09:41:05.844Z,18.31
2019-05-25T09:42:05.811Z,18.33
2019-05-25T09:43:05.798Z,18.52
2019-05-25T09:44:05.790Z,18.72
2019-05-25T09:45:05.796Z,18.72
2019-05-25T09:46:05.769Z,18.74
2019-05-25T09:47:05.753Z,18.74
2019-05-25T09:48:05.745Z,18.68
2019-05-25T09:49:05.737Z,18.79
2019-05-25T09:50:05.746Z,18.76
2019-05-25T09:51:15.540Z,18.84
2019-05-25T09:52:06.701Z,18.92
2019-05-25T09:53:05.688Z,18.87
2019-05-25T09:54:05.677Z,18.92
2019-05-25T09:55:05.726Z,18.98
2019-05-25T09:56:05.658Z,19.02
2019-05-25T09:57:05.761Z,18.94
2019-05-25T09:58:05.642Z,18.80
2019-05-25T09:59:19.193Z,18.79
2019-05-25T10:00:06.660Z,18.84
2019-05-25T10:01:05.612Z,18.91
2019-05-25T10:02:05.599Z,18.84
2019-05-25T10:03:05.593Z,18.83
2019-05-25T10:04:05.584Z,18.91
2019-05-25T10:05:05.567Z,18.95
2019-05-25T10:06:11.935Z,18.99
2019-05-25T10:07:06.541Z,19.11
2019-05-25T10:08:05.561Z,19.15
2019-05-25T10:09:05.523Z,19.24
2019-05-25T10:10:05.510Z,19.31
2019-05-25T10:11:05.627Z,19.28
2019-05-25T10:12:05.497Z,19.38
2019-05-25T10:13:05.486Z,19.55
2019-05-25T10:14:05.477Z,19.69
2019-05-25T10:15:05.522Z,19.72
2019-05-25T10:16:05.548Z,19.88
2019-05-25T10:17:05.446Z,19.75
2019-05-25T10:18:05.436Z,19.88
2019-05-25T10:19:05.501Z,19.83
2019-05-25T10:20:05.477Z,19.70
2019-05-25T10:21:05.444Z,19.72
2019-05-25T10:22:07.201Z,19.73
2019-05-25T10:23:05.403Z,19.70
2019-05-25T10:24:05.364Z,19.73
2019-05-25T10:25:05.377Z,19.73
2019-05-25T10:26:05.347Z,19.68
2019-05-25T10:27:05.354Z,19.73
2019-05-25T10:28:05.323Z,19.80
2019-05-25T10:29:05.343Z,19.68
2019-05-25T10:30:05.301Z,19.72
2019-05-25T10:31:05.318Z,19.72
2019-05-25T10:32:05.278Z,19.87
2019-05-25T10:33:05.266Z,19.90
2019-05-25T10:34:05.295Z,20.10
2019-05-25T10:35:05.266Z,20.24
2019-05-25T10:36:05.250Z,20.38
2019-05-25T10:37:05.374Z,20.46
2019-05-25T10:38:05.224Z,20.51
2019-05-25T10:39:05.212Z,20.58
2019-05-25T10:40:12.835Z,20.72
2019-05-25T10:41:05.192Z,20.83
2019-05-25T10:42:12.759Z,20.83
2019-05-25T10:43:05.167Z,20.84
2019-05-25T10:44:12.708Z,20.98
2019-05-25T10:45:05.161Z,20.98
2019-05-25T10:46:05.144Z,20.95
2019-05-25T10:47:05.147Z,20.98
2019-05-25T10:48:05.106Z,20.87
2019-05-25T10:49:05.363Z,20.99
2019-05-25T10:50:05.088Z,20.99
2019-05-25T10:51:05.076Z,21.01
2019-05-25T10:52:05.087Z,21.17
2019-05-25T10:53:05.092Z,21.21
2019-05-25T10:54:05.092Z,21.32
2019-05-25T10:56:14.768Z,21.20
2019-05-25T10:57:14.779Z,21.23
2019-05-25T10:58:14.736Z,21.39
2019-05-25T10:59:14.726Z,21.26
2019-05-25T11:00:15.448Z,21.29
2019-05-25T11:01:14.703Z,21.41
2019-05-25T11:02:14.711Z,21.45
2019-05-25T11:03:14.752Z,21.41
2019-05-25T11:04:14.678Z,21.48
2019-05-25T11:05:14.664Z,21.59
2019-05-25T11:06:14.725Z,21.57
2019-05-25T11:07:14.663Z,21.74
2019-05-25T11:08:14.635Z,21.82
2019-05-25T11:09:14.634Z,21.83
2019-05-25T11:10:14.612Z,21.72
2019-05-25T11:11:14.615Z,21.75
2019-05-25T11:12:14.632Z,21.85
2019-05-25T11:13:22.165Z,21.83
2019-05-25T11:14:14.565Z,21.85
2019-05-25T11:15:22.201Z,21.85
2019-05-25T11:16:14.598Z,21.90
2019-05-25T11:17:22.200Z,21.88
2019-05-25T11:18:14.606Z,21.91
2019-05-25T11:19:14.550Z,21.94
2019-05-25T11:20:14.523Z,21.90
2019-05-25T11:21:14.516Z,21.81
2019-05-25T11:22:14.502Z,21.79
2019-05-25T11:23:14.514Z,21.76
2019-05-25T11:24:14.453Z,21.66
2019-05-25T11:25:14.446Z,21.74
2019-05-25T11:26:14.444Z,21.72
2019-05-25T11:27:14.433Z,21.69
2019-05-25T11:28:14.437Z,21.76
2019-05-25T11:29:14.423Z,21.67
2019-05-25T11:30:14.440Z,21.67
2019-05-25T11:31:14.464Z,21.63
2019-05-25T11:32:22.995Z,21.59
2019-05-25T11:33:14.698Z,21.66
2019-05-25T11:34:22.312Z,21.75
2019-05-25T11:35:14.443Z,21.71
2019-05-25T11:37:50.404Z,21.74
2019-05-25T11:40:33.705Z,22.13
2019-05-25T11:41:33.555Z,22.14
2019-05-25T11:42:33.547Z,21.85
2019-05-25T11:43:33.575Z,21.82
2019-05-25T11:44:33.537Z,21.75
2019-05-25T11:45:33.517Z,21.83
2019-05-25T11:46:33.506Z,21.88
2019-05-25T11:47:33.495Z,21.74
2019-05-25T11:48:33.548Z,21.69
2019-05-25T11:50:50.660Z,21.64
2019-05-25T11:51:58.138Z,21.75
2019-05-25T11:52:50.595Z,21.90
2019-05-25T11:53:58.373Z,21.91
2019-05-25T11:54:50.425Z,21.88
2019-05-25T11:55:50.397Z,21.82
2019-05-25T11:56:50.434Z,21.82
2019-05-25T11:57:50.435Z,21.72
2019-05-25T11:58:50.432Z,21.61
2019-05-25T11:59:58.122Z,21.42
2019-05-25T12:00:51.737Z,21.48
2019-05-25T12:03:08.706Z,21.54
2019-05-25T12:04:08.688Z,21.54
2019-05-25T12:05:08.623Z,21.57
2019-05-25T12:06:08.598Z,21.57
2019-05-25T12:07:08.635Z,21.67
2019-05-25T12:08:08.635Z,21.63
2019-05-25T12:09:08.568Z,21.78
2019-05-25T12:10:08.563Z,21.90
2019-05-25T12:11:08.571Z,22.09
2019-05-25T12:12:08.698Z,22.22
2019-05-25T12:13:16.189Z,22.28
2019-05-25T12:14:08.554Z,22.31
2019-05-25T12:15:08.512Z,22.32
2019-05-25T12:16:08.575Z,22.47
2019-05-25T12:17:08.484Z,22.53
2019-05-25T12:18:16.303Z,22.44
2019-05-25T12:19:08.535Z,22.29
2019-05-25T12:20:09.700Z,22.29
2019-05-25T12:21:16.000Z,22.31
2019-05-25T12:22:08.477Z,22.47
2019-05-25T12:24:18.248Z,22.49
2019-05-25T12:25:18.201Z,22.52
2019-05-25T12:26:18.239Z,22.65
2019-05-25T12:27:18.834Z,22.50
2019-05-25T12:28:18.145Z,22.37
2019-05-25T12:29:26.866Z,22.29
2019-05-25T12:30:18.167Z,22.41
2019-05-25T12:31:18.299Z,22.44
2019-05-25T12:32:18.099Z,22.54
2019-05-25T12:33:18.086Z,22.53
2019-05-25T12:34:18.106Z,22.59
2019-05-25T12:35:18.064Z,22.54
2019-05-25T12:36:18.033Z,22.46
2019-05-25T12:37:18.029Z,22.47
2019-05-25T12:38:18.039Z,22.34
2019-05-25T12:39:18.002Z,22.39
2019-05-25T12:40:18.016Z,22.43
2019-05-25T12:41:17.985Z,22.39
2019-05-25T12:42:17.969Z,22.37
2019-05-25T12:43:17.996Z,22.34
2019-05-25T12:44:18.168Z,22.29
2019-05-25T12:45:17.962Z,22.35
2019-05-25T12:46:25.606Z,22.31
2019-05-25T12:47:18.076Z,22.29
2019-05-25T12:48:25.572Z,22.32
2019-05-25T12:49:17.943Z,22.34
2019-05-25T12:50:18.307Z,22.35
2019-05-25T12:51:25.536Z,22.41
2019-05-25T12:52:18.482Z,22.43
2019-05-25T12:53:26.823Z,22.46
2019-05-25T12:54:17.931Z,22.46
2019-05-25T12:56:49.386Z,22.32
2019-05-25T12:57:51.364Z,22.44
2019-05-25T12:58:56.848Z,22.29
2019-05-25T12:59:49.366Z,22.25
2019-05-25T13:01:59.330Z,22.13
2019-05-25T13:03:06.592Z,22.06
2019-05-25T13:03:59.094Z,22.22
2019-05-25T13:06:08.880Z,22.29